THY1EW LTFM-LTCK
Flight info
| Callsign | THY1EW |
|---|---|
| Flight time | 1h 37m |
| Altitude | 37000 |
| Route | VICEN1E/36 VICEN UT57 VEVUD UT341 BAG UL614 GOBIT UG8 MARTI UL614 EZS UT368 BAYIR |
| Aircraft | A321/M-SDE3FGHIRWY/LB1 |
Departure
| Time | 2026-05-04 11:56 |
|---|---|
| Airport | İstanbul Airport (LTFM) |
Arrival
| Time | 2026-05-04 13:34 |
|---|---|
| Airport | Muş Airport (LTCK) |
| Time | Latitude | Longitude | Altitude | Speed | Heading |
|---|---|---|---|---|---|
| 2026-05-04 11:31 | 41.26389 | 28.74381 | 334 ft | 0 kts | 240° |
| 2026-05-04 11:44 | 41.26398 | 28.74403 | 329 ft | 4 kts | 240° |
| 2026-05-04 11:45 | 41.26412 | 28.74434 | 330 ft | 4 kts | 240° |
| 2026-05-04 11:45 | 41.26422 | 28.74458 | 330 ft | 4 kts | 244° |
| 2026-05-04 11:45 | 41.26427 | 28.74488 | 330 ft | 3 kts | 291° |
| 2026-05-04 11:45 | 41.26420 | 28.74515 | 332 ft | 3 kts | 287° |
| 2026-05-04 11:46 | 41.26419 | 28.74519 | 330 ft | 0 kts | 287° |
| 2026-05-04 11:48 | 41.26419 | 28.74518 | 332 ft | 1 kts | 287° |
| 2026-05-04 11:49 | 41.26421 | 28.74510 | 332 ft | 2 kts | 288° |
| 2026-05-04 11:49 | 41.26432 | 28.74489 | 330 ft | 4 kts | 316° |
| 2026-05-04 11:49 | 41.26462 | 28.74476 | 332 ft | 5 kts | 353° |
| 2026-05-04 11:49 | 41.26505 | 28.74474 | 330 ft | 7 kts | 359° |
| 2026-05-04 11:50 | 41.26561 | 28.74473 | 334 ft | 9 kts | 359° |
| 2026-05-04 11:50 | 41.26627 | 28.74471 | 331 ft | 10 kts | 359° |
| 2026-05-04 11:50 | 41.26704 | 28.74470 | 330 ft | 12 kts | 359° |
| 2026-05-04 11:50 | 41.26789 | 28.74468 | 331 ft | 13 kts | 359° |
| 2026-05-04 11:51 | 41.26882 | 28.74465 | 332 ft | 14 kts | 359° |
| 2026-05-04 11:51 | 41.26959 | 28.74479 | 334 ft | 10 kts | 39° |
| 2026-05-04 11:51 | 41.26973 | 28.74577 | 334 ft | 12 kts | 89° |
| 2026-05-04 11:51 | 41.26974 | 28.74697 | 334 ft | 14 kts | 89° |
| 2026-05-04 11:52 | 41.26976 | 28.74836 | 334 ft | 16 kts | 89° |
| 2026-05-04 11:52 | 41.26978 | 28.74991 | 334 ft | 18 kts | 89° |
| 2026-05-04 11:52 | 41.26981 | 28.75158 | 334 ft | 17 kts | 89° |
| 2026-05-04 11:52 | 41.26982 | 28.75275 | 333 ft | 10 kts | 89° |
| 2026-05-04 11:53 | 41.26962 | 28.75366 | 334 ft | 11 kts | 144° |
| 2026-05-04 11:53 | 41.26879 | 28.75376 | 332 ft | 13 kts | 179° |
| 2026-05-04 11:53 | 41.26780 | 28.75379 | 332 ft | 15 kts | 179° |
| 2026-05-04 11:53 | 41.26669 | 28.75381 | 332 ft | 17 kts | 179° |
| 2026-05-04 11:55 | 41.26390 | 28.75666 | 334 ft | 0 kts | 0° |
| 2026-05-04 11:56 | 41.26564 | 28.75663 | 332 ft | 64 kts | 359° |
| 2026-05-04 11:56 | 41.27266 | 28.75649 | 332 ft | 134 kts | 359° |
| 2026-05-04 11:56 | 41.28311 | 28.75638 | 773 ft | 153 kts | 358° |
| 2026-05-04 11:56 | 41.29378 | 28.75632 | 1676 ft | 154 kts | 1° |
| 2026-05-04 11:57 | 41.30423 | 28.76197 | 2190 ft | 178 kts | 33° |
| 2026-05-04 11:57 | 41.31493 | 28.77206 | 2492 ft | 199 kts | 30° |
| 2026-05-04 11:57 | 41.32753 | 28.78234 | 2803 ft | 226 kts | 28° |
| 2026-05-04 11:57 | 41.34154 | 28.79328 | 3486 ft | 238 kts | 28° |
| 2026-05-04 11:58 | 41.35595 | 28.80439 | 4431 ft | 241 kts | 27° |
| 2026-05-04 11:58 | 41.36987 | 28.81712 | 5324 ft | 249 kts | 41° |
| 2026-05-04 11:58 | 41.37892 | 28.83725 | 6203 ft | 264 kts | 69° |
| 2026-05-04 11:58 | 41.37930 | 28.86221 | 7032 ft | 283 kts | 100° |
| 2026-05-04 11:59 | 41.37018 | 28.88609 | 7859 ft | 295 kts | 118° |
| 2026-05-04 11:59 | 41.35877 | 28.90914 | 8713 ft | 300 kts | 119° |
| 2026-05-04 11:59 | 41.34698 | 28.93243 | 9551 ft | 306 kts | 118° |
| 2026-05-04 11:59 | 41.33496 | 28.95612 | 10280 ft | 315 kts | 118° |
| 2026-05-04 12:00 | 41.32243 | 28.98104 | 10712 ft | 331 kts | 118° |
| 2026-05-04 12:00 | 41.30956 | 29.00674 | 11428 ft | 336 kts | 117° |
| 2026-05-04 12:00 | 41.29655 | 29.03269 | 12251 ft | 338 kts | 117° |
| 2026-05-04 12:00 | 41.28348 | 29.05873 | 13065 ft | 339 kts | 117° |
| 2026-05-04 12:01 | 41.27036 | 29.08493 | 13895 ft | 341 kts | 116° |
| 2026-05-04 12:01 | 41.25720 | 29.11124 | 14607 ft | 343 kts | 116° |
| 2026-05-04 12:02 | 41.18826 | 29.24932 | 18096 ft | 359 kts | 118° |
| 2026-05-04 12:03 | 41.17431 | 29.27692 | 18709 ft | 361 kts | 118° |
| 2026-05-04 12:03 | 41.16029 | 29.30466 | 19300 ft | 363 kts | 118° |
| 2026-05-04 12:03 | 41.14615 | 29.33264 | 19878 ft | 366 kts | 118° |
| 2026-05-04 12:03 | 41.13674 | 29.35128 | 20270 ft | 367 kts | 118° |
| 2026-05-04 12:04 | 41.12250 | 29.37953 | 20843 ft | 370 kts | 117° |
| 2026-05-04 12:04 | 41.10813 | 29.40805 | 21402 ft | 373 kts | 117° |
| 2026-05-04 12:04 | 41.08897 | 29.44612 | 22129 ft | 377 kts | 117° |
| 2026-05-04 12:04 | 41.07432 | 29.47519 | 22395 ft | 384 kts | 118° |
| 2026-05-04 12:05 | 41.06421 | 29.49523 | 22580 ft | 389 kts | 118° |
| 2026-05-04 12:05 | 41.04905 | 29.52513 | 22851 ft | 392 kts | 118° |
| 2026-05-04 12:05 | 41.03382 | 29.55511 | 23126 ft | 393 kts | 118° |
| 2026-05-04 12:05 | 41.01847 | 29.58531 | 23529 ft | 397 kts | 118° |
| 2026-05-04 12:06 | 41.00300 | 29.61573 | 23977 ft | 399 kts | 118° |
| 2026-05-04 12:06 | 40.98747 | 29.64631 | 24425 ft | 401 kts | 118° |
| 2026-05-04 12:06 | 40.97184 | 29.67703 | 24879 ft | 403 kts | 118° |
| 2026-05-04 12:06 | 40.95612 | 29.70787 | 25322 ft | 405 kts | 118° |
| 2026-05-04 12:07 | 40.94052 | 29.73844 | 25766 ft | 407 kts | 118° |
| 2026-05-04 12:07 | 40.92441 | 29.76996 | 26220 ft | 409 kts | 118° |
| 2026-05-04 12:07 | 40.90841 | 29.80121 | 26667 ft | 411 kts | 118° |
| 2026-05-04 12:07 | 40.89234 | 29.83263 | 27112 ft | 414 kts | 118° |
| 2026-05-04 12:08 | 40.87619 | 29.86417 | 27531 ft | 416 kts | 118° |
| 2026-05-04 12:08 | 40.86013 | 29.89552 | 27946 ft | 418 kts | 118° |
| 2026-05-04 12:08 | 40.84378 | 29.92739 | 28353 ft | 420 kts | 118° |
| 2026-05-04 12:08 | 40.82732 | 29.95937 | 28758 ft | 422 kts | 118° |
| 2026-05-04 12:09 | 40.81081 | 29.99147 | 29186 ft | 424 kts | 118° |
| 2026-05-04 12:09 | 40.79465 | 30.02287 | 29602 ft | 425 kts | 118° |
| 2026-05-04 12:09 | 40.77797 | 30.05523 | 30035 ft | 427 kts | 118° |
| 2026-05-04 12:09 | 40.76122 | 30.08767 | 30409 ft | 428 kts | 118° |
| 2026-05-04 12:10 | 40.74445 | 30.12019 | 30786 ft | 429 kts | 118° |
| 2026-05-04 12:10 | 40.72767 | 30.15273 | 31149 ft | 429 kts | 118° |
| 2026-05-04 12:10 | 40.71086 | 30.18523 | 31526 ft | 429 kts | 119° |
| 2026-05-04 12:10 | 40.69402 | 30.21774 | 31907 ft | 429 kts | 119° |
| 2026-05-04 12:11 | 40.67720 | 30.25023 | 32299 ft | 429 kts | 119° |
| 2026-05-04 12:11 | 40.66040 | 30.28268 | 32689 ft | 429 kts | 119° |
| 2026-05-04 12:11 | 40.64353 | 30.31517 | 33091 ft | 429 kts | 120° |
| 2026-05-04 12:11 | 40.62665 | 30.34754 | 33496 ft | 428 kts | 120° |
| 2026-05-04 12:12 | 40.60982 | 30.37984 | 33905 ft | 427 kts | 120° |
| 2026-05-04 12:12 | 40.59304 | 30.41203 | 34262 ft | 426 kts | 120° |
| 2026-05-04 12:12 | 40.57627 | 30.44415 | 34613 ft | 426 kts | 120° |
| 2026-05-04 12:12 | 40.55951 | 30.47620 | 34967 ft | 424 kts | 120° |
| 2026-05-04 12:13 | 40.54401 | 30.50893 | 35326 ft | 419 kts | 114° |
| 2026-05-04 12:14 | 40.49126 | 30.76323 | 36760 ft | 419 kts | 102° |
| 2026-05-04 12:15 | 40.48305 | 30.80001 | 36914 ft | 421 kts | 104° |
| 2026-05-04 12:15 | 40.47416 | 30.83687 | 36980 ft | 425 kts | 105° |
| 2026-05-04 12:15 | 40.45548 | 30.91165 | 36976 ft | 437 kts | 105° |
| 2026-05-04 12:16 | 40.43662 | 30.98873 | 36965 ft | 449 kts | 105° |
| 2026-05-04 12:16 | 40.41791 | 31.06701 | 36960 ft | 454 kts | 104° |
| 2026-05-04 12:17 | 40.39909 | 31.14631 | 36948 ft | 456 kts | 105° |
| 2026-05-04 12:17 | 40.38042 | 31.22578 | 36941 ft | 455 kts | 101° |
| 2026-05-04 12:18 | 40.36716 | 31.30677 | 36936 ft | 454 kts | 99° |
| 2026-05-04 12:18 | 40.35406 | 31.38796 | 36933 ft | 455 kts | 99° |
| 2026-05-04 12:19 | 40.34084 | 31.46916 | 36928 ft | 456 kts | 99° |
| 2026-05-04 12:19 | 40.32746 | 31.55041 | 36925 ft | 456 kts | 99° |
| 2026-05-04 12:20 | 40.31403 | 31.63174 | 36917 ft | 457 kts | 99° |
| 2026-05-04 12:20 | 40.30057 | 31.71314 | 36915 ft | 457 kts | 100° |
| 2026-05-04 12:21 | 40.28707 | 31.79450 | 36904 ft | 457 kts | 100° |
| 2026-05-04 12:21 | 40.27341 | 31.87593 | 36902 ft | 458 kts | 100° |
| 2026-05-04 12:22 | 40.25895 | 31.95717 | 36896 ft | 459 kts | 102° |
| 2026-05-04 12:22 | 40.24153 | 32.03749 | 36888 ft | 459 kts | 104° |
| 2026-05-04 12:23 | 40.22312 | 32.11762 | 36887 ft | 460 kts | 104° |
| 2026-05-04 12:23 | 40.20521 | 32.19797 | 36880 ft | 460 kts | 104° |
| 2026-05-04 12:24 | 40.18775 | 32.27850 | 36879 ft | 460 kts | 104° |
| 2026-05-04 12:24 | 40.17026 | 32.35897 | 36878 ft | 460 kts | 104° |
| 2026-05-04 12:25 | 40.15255 | 32.43935 | 36869 ft | 460 kts | 104° |
| 2026-05-04 12:25 | 40.13505 | 32.51818 | 36861 ft | 461 kts | 104° |
| 2026-05-04 12:26 | 40.11715 | 32.59859 | 36861 ft | 461 kts | 104° |
| 2026-05-04 12:26 | 40.09927 | 32.67904 | 36863 ft | 461 kts | 104° |
| 2026-05-04 12:27 | 40.08130 | 32.75952 | 36859 ft | 462 kts | 104° |
| 2026-05-04 12:27 | 40.06252 | 32.83977 | 36859 ft | 462 kts | 107° |
| 2026-05-04 12:28 | 40.03992 | 32.91823 | 36858 ft | 463 kts | 110° |
| 2026-05-04 12:28 | 40.01567 | 32.99607 | 36858 ft | 463 kts | 110° |
| 2026-05-04 12:29 | 39.99195 | 33.07411 | 36855 ft | 463 kts | 110° |
| 2026-05-04 12:29 | 39.96892 | 33.15242 | 36846 ft | 463 kts | 109° |
| 2026-05-04 12:30 | 39.94590 | 33.23068 | 36838 ft | 463 kts | 110° |
| 2026-05-04 12:30 | 39.92266 | 33.30903 | 36833 ft | 463 kts | 110° |
| 2026-05-04 12:31 | 39.89932 | 33.38723 | 36823 ft | 463 kts | 110° |
| 2026-05-04 12:31 | 39.87598 | 33.46492 | 36817 ft | 463 kts | 110° |
| 2026-05-04 12:32 | 39.84072 | 33.58212 | 36812 ft | 464 kts | 111° |
| 2026-05-04 12:33 | 39.82173 | 33.66204 | 36812 ft | 463 kts | 104° |
| 2026-05-04 12:33 | 39.80543 | 33.74310 | 36813 ft | 463 kts | 104° |
| 2026-05-04 12:34 | 39.78896 | 33.82411 | 36810 ft | 463 kts | 104° |
| 2026-05-04 12:34 | 39.77123 | 33.90458 | 36806 ft | 463 kts | 110° |
| 2026-05-04 12:35 | 39.74900 | 33.98321 | 36811 ft | 464 kts | 110° |
| 2026-05-04 12:35 | 39.72662 | 34.06187 | 36809 ft | 464 kts | 110° |
| 2026-05-04 12:36 | 39.70428 | 34.14054 | 36808 ft | 464 kts | 110° |
| 2026-05-04 12:36 | 39.68194 | 34.21922 | 36809 ft | 465 kts | 110° |
| 2026-05-04 12:37 | 39.65943 | 34.29781 | 36806 ft | 465 kts | 111° |
| 2026-05-04 12:37 | 39.63688 | 34.37644 | 36803 ft | 465 kts | 111° |
| 2026-05-04 12:38 | 39.61427 | 34.45506 | 36802 ft | 465 kts | 111° |
| 2026-05-04 12:38 | 39.59160 | 34.53358 | 36802 ft | 465 kts | 111° |
| 2026-05-04 12:39 | 39.56886 | 34.61211 | 36802 ft | 465 kts | 111° |
| 2026-05-04 12:39 | 39.54626 | 34.69008 | 36801 ft | 465 kts | 111° |
| 2026-05-04 12:40 | 39.52335 | 34.76899 | 36803 ft | 465 kts | 111° |
| 2026-05-04 12:40 | 39.50062 | 34.84674 | 36802 ft | 465 kts | 111° |
| 2026-05-04 12:41 | 39.47763 | 34.92496 | 36800 ft | 465 kts | 112° |
| 2026-05-04 12:41 | 39.45466 | 35.00318 | 36799 ft | 465 kts | 112° |
| 2026-05-04 12:42 | 39.43166 | 35.08134 | 36798 ft | 465 kts | 112° |
| 2026-05-04 12:42 | 39.40856 | 35.15946 | 36793 ft | 465 kts | 112° |
| 2026-05-04 12:43 | 39.38550 | 35.23753 | 36795 ft | 465 kts | 112° |
| 2026-05-04 12:43 | 39.36294 | 35.31597 | 36800 ft | 465 kts | 112° |
| 2026-05-04 12:44 | 39.34041 | 35.39435 | 36795 ft | 466 kts | 112° |
| 2026-05-04 12:44 | 39.31763 | 35.47268 | 36793 ft | 466 kts | 112° |
| 2026-05-04 12:45 | 39.29471 | 35.55094 | 36798 ft | 466 kts | 112° |
| 2026-05-04 12:45 | 39.27174 | 35.62920 | 36789 ft | 466 kts | 112° |
| 2026-05-04 12:46 | 39.24880 | 35.70748 | 36788 ft | 467 kts | 112° |
| 2026-05-04 12:46 | 39.22579 | 35.78579 | 36789 ft | 467 kts | 113° |
| 2026-05-04 12:47 | 39.20266 | 35.86398 | 36780 ft | 467 kts | 113° |
| 2026-05-04 12:47 | 39.17944 | 35.94217 | 36784 ft | 467 kts | 113° |
| 2026-05-04 12:48 | 39.15662 | 36.02058 | 36791 ft | 469 kts | 108° |
| 2026-05-04 12:48 | 39.14623 | 36.08919 | 36785 ft | 471 kts | 101° |
| 2026-05-04 12:49 | 39.13409 | 36.18603 | 36797 ft | 471 kts | 101° |
| 2026-05-04 12:49 | 39.12340 | 36.26924 | 36794 ft | 471 kts | 102° |
| 2026-05-04 12:50 | 39.11443 | 36.33897 | 36800 ft | 471 kts | 102° |
| 2026-05-04 12:50 | 39.10375 | 36.42223 | 36800 ft | 471 kts | 102° |
| 2026-05-04 12:51 | 39.09304 | 36.50540 | 36801 ft | 471 kts | 102° |
| 2026-05-04 12:51 | 39.08220 | 36.58864 | 36819 ft | 472 kts | 102° |
| 2026-05-04 12:52 | 39.07125 | 36.67193 | 36820 ft | 472 kts | 102° |
| 2026-05-04 12:52 | 39.06029 | 36.75521 | 36829 ft | 472 kts | 102° |
| 2026-05-04 12:53 | 39.04932 | 36.83804 | 36832 ft | 473 kts | 102° |
| 2026-05-04 12:53 | 39.03820 | 36.92151 | 36840 ft | 474 kts | 103° |
| 2026-05-04 12:54 | 39.02704 | 37.00504 | 36840 ft | 474 kts | 103° |
| 2026-05-04 12:54 | 39.01577 | 37.08858 | 36849 ft | 474 kts | 103° |
| 2026-05-04 12:55 | 39.00447 | 37.17214 | 36854 ft | 474 kts | 103° |
| 2026-05-04 12:55 | 38.99317 | 37.25565 | 36861 ft | 474 kts | 103° |
| 2026-05-04 12:56 | 38.98186 | 37.33862 | 36859 ft | 474 kts | 103° |
| 2026-05-04 12:56 | 38.97034 | 37.42205 | 36860 ft | 474 kts | 103° |
| 2026-05-04 12:57 | 38.95876 | 37.50539 | 36861 ft | 474 kts | 103° |
| 2026-05-04 12:57 | 38.94721 | 37.58877 | 36862 ft | 474 kts | 103° |
| 2026-05-04 12:58 | 38.93557 | 37.67216 | 36864 ft | 474 kts | 103° |
| 2026-05-04 12:58 | 38.92382 | 37.75544 | 36865 ft | 474 kts | 103° |
| 2026-05-04 12:59 | 38.91202 | 37.83873 | 36865 ft | 474 kts | 103° |
| 2026-05-04 12:59 | 38.90020 | 37.92202 | 36871 ft | 475 kts | 103° |
| 2026-05-04 13:00 | 38.88836 | 38.00480 | 36868 ft | 475 kts | 104° |
| 2026-05-04 13:00 | 38.87634 | 38.08826 | 36870 ft | 475 kts | 104° |
| 2026-05-04 13:01 | 38.86431 | 38.17166 | 36869 ft | 476 kts | 104° |
| 2026-05-04 13:01 | 38.85223 | 38.25514 | 36876 ft | 476 kts | 104° |
| 2026-05-04 13:02 | 38.84005 | 38.33863 | 36885 ft | 476 kts | 104° |
| 2026-05-04 13:02 | 38.82773 | 38.42222 | 36892 ft | 476 kts | 104° |
| 2026-05-04 13:03 | 38.81543 | 38.50569 | 36895 ft | 476 kts | 104° |
| 2026-05-04 13:03 | 38.80308 | 38.58904 | 36902 ft | 476 kts | 104° |
| 2026-05-04 13:04 | 38.79082 | 38.67184 | 36904 ft | 476 kts | 104° |
| 2026-05-04 13:04 | 38.77833 | 38.75516 | 36902 ft | 476 kts | 105° |
| 2026-05-04 13:05 | 38.76574 | 38.83835 | 36901 ft | 476 kts | 105° |
| 2026-05-04 13:05 | 38.75312 | 38.92155 | 36905 ft | 475 kts | 105° |
| 2026-05-04 13:06 | 38.74077 | 39.00473 | 36912 ft | 476 kts | 104° |
| 2026-05-04 13:06 | 38.72856 | 39.08803 | 36922 ft | 476 kts | 105° |
| 2026-05-04 13:07 | 38.71625 | 39.17127 | 36926 ft | 476 kts | 105° |
| 2026-05-04 13:07 | 38.70688 | 39.25524 | 36932 ft | 480 kts | 97° |
| 2026-05-04 13:08 | 38.70301 | 39.34058 | 36929 ft | 480 kts | 97° |
| 2026-05-04 13:08 | 38.69902 | 39.42589 | 36654 ft | 480 kts | 97° |
| 2026-05-04 13:08 | 38.69697 | 39.46855 | 36400 ft | 479 kts | 98° |
| 2026-05-04 13:09 | 38.69493 | 39.51117 | 36153 ft | 480 kts | 98° |
| 2026-05-04 13:09 | 38.69290 | 39.55385 | 35905 ft | 480 kts | 98° |
| 2026-05-04 13:09 | 38.69094 | 39.59649 | 35663 ft | 481 kts | 98° |
| 2026-05-04 13:09 | 38.68904 | 39.63924 | 35424 ft | 481 kts | 98° |
| 2026-05-04 13:10 | 38.68716 | 39.68203 | 35188 ft | 482 kts | 98° |
| 2026-05-04 13:10 | 38.68524 | 39.72486 | 34949 ft | 482 kts | 98° |
| 2026-05-04 13:10 | 38.68330 | 39.76768 | 34720 ft | 482 kts | 98° |
| 2026-05-04 13:10 | 38.68134 | 39.80998 | 34490 ft | 482 kts | 98° |
| 2026-05-04 13:11 | 38.67936 | 39.85278 | 34263 ft | 482 kts | 98° |
| 2026-05-04 13:11 | 38.67735 | 39.89569 | 34038 ft | 482 kts | 99° |
| 2026-05-04 13:11 | 38.67531 | 39.93847 | 33787 ft | 482 kts | 99° |
| 2026-05-04 13:11 | 38.67323 | 39.98130 | 33518 ft | 482 kts | 99° |
| 2026-05-04 13:12 | 38.67113 | 40.02412 | 33251 ft | 482 kts | 99° |
| 2026-05-04 13:12 | 38.66904 | 40.06693 | 32988 ft | 482 kts | 99° |
| 2026-05-04 13:12 | 38.66697 | 40.10981 | 32707 ft | 483 kts | 99° |
| 2026-05-04 13:12 | 38.66488 | 40.15272 | 31831 ft | 485 kts | 99° |
| 2026-05-04 13:13 | 38.66273 | 40.19574 | 31281 ft | 480 kts | 100° |
| 2026-05-04 13:13 | 38.66062 | 40.23821 | 30737 ft | 476 kts | 100° |
| 2026-05-04 13:13 | 38.65852 | 40.28035 | 30176 ft | 473 kts | 100° |
| 2026-05-04 13:13 | 38.65644 | 40.32224 | 29560 ft | 469 kts | 100° |
| 2026-05-04 13:14 | 38.65440 | 40.36359 | 28995 ft | 463 kts | 100° |
| 2026-05-04 13:14 | 38.65240 | 40.40440 | 28456 ft | 457 kts | 100° |
| 2026-05-04 13:14 | 38.65044 | 40.44460 | 27898 ft | 450 kts | 100° |
| 2026-05-04 13:14 | 38.64849 | 40.48430 | 27371 ft | 444 kts | 100° |
| 2026-05-04 13:15 | 38.64653 | 40.52343 | 26834 ft | 438 kts | 100° |
| 2026-05-04 13:15 | 38.64458 | 40.56162 | 26322 ft | 434 kts | 100° |
| 2026-05-04 13:15 | 38.64257 | 40.60039 | 25805 ft | 429 kts | 99° |
| 2026-05-04 13:15 | 38.64061 | 40.63777 | 25315 ft | 425 kts | 99° |
| 2026-05-04 13:16 | 38.63862 | 40.67526 | 24824 ft | 421 kts | 99° |
| 2026-05-04 13:16 | 38.63664 | 40.71243 | 24351 ft | 417 kts | 98° |
| 2026-05-04 13:16 | 38.63467 | 40.74918 | 23899 ft | 412 kts | 98° |
| 2026-05-04 13:16 | 38.63272 | 40.78549 | 23440 ft | 407 kts | 98° |
| 2026-05-04 13:17 | 38.63078 | 40.82133 | 22959 ft | 401 kts | 98° |
| 2026-05-04 13:17 | 38.62882 | 40.85652 | 22538 ft | 394 kts | 99° |
| 2026-05-04 13:17 | 38.62678 | 40.89120 | 22098 ft | 388 kts | 99° |
| 2026-05-04 13:17 | 38.62472 | 40.92526 | 21671 ft | 381 kts | 99° |
| 2026-05-04 13:18 | 38.62264 | 40.95880 | 21232 ft | 376 kts | 99° |
| 2026-05-04 13:18 | 38.62059 | 40.99197 | 20805 ft | 372 kts | 100° |
| 2026-05-04 13:18 | 38.61856 | 41.02485 | 20347 ft | 368 kts | 100° |
| 2026-05-04 13:18 | 38.61655 | 41.05727 | 19914 ft | 364 kts | 100° |
| 2026-05-04 13:19 | 38.61455 | 41.08947 | 19457 ft | 363 kts | 100° |
| 2026-05-04 13:19 | 38.61257 | 41.12156 | 19002 ft | 361 kts | 100° |
| 2026-05-04 13:19 | 38.61061 | 41.15344 | 18542 ft | 359 kts | 100° |
| 2026-05-04 13:19 | 38.60862 | 41.18521 | 18055 ft | 357 kts | 100° |
| 2026-05-04 13:20 | 38.60667 | 41.21652 | 17803 ft | 348 kts | 100° |
| 2026-05-04 13:20 | 38.60478 | 41.24694 | 17460 ft | 341 kts | 100° |
| 2026-05-04 13:20 | 38.60288 | 41.27697 | 16979 ft | 337 kts | 100° |
| 2026-05-04 13:20 | 38.60097 | 41.30673 | 16450 ft | 335 kts | 100° |
| 2026-05-04 13:21 | 38.59905 | 41.33634 | 15974 ft | 333 kts | 100° |
| 2026-05-04 13:21 | 38.59765 | 41.36575 | 15574 ft | 332 kts | 94° |
| 2026-05-04 13:21 | 38.60062 | 41.39516 | 15172 ft | 336 kts | 81° |
| 2026-05-04 13:21 | 38.60867 | 41.42322 | 14647 ft | 339 kts | 67° |
| 2026-05-04 13:22 | 38.62161 | 41.44849 | 14216 ft | 341 kts | 54° |
| 2026-05-04 13:22 | 38.63620 | 41.47226 | 13761 ft | 340 kts | 55° |
| 2026-05-04 13:22 | 38.65097 | 41.49663 | 12781 ft | 353 kts | 55° |
| 2026-05-04 13:22 | 38.66601 | 41.52156 | 12330 ft | 348 kts | 55° |
| 2026-05-04 13:23 | 38.68034 | 41.54526 | 12193 ft | 333 kts | 55° |
| 2026-05-04 13:23 | 38.69425 | 41.56829 | 11928 ft | 323 kts | 55° |
| 2026-05-04 13:23 | 38.70785 | 41.59090 | 11456 ft | 319 kts | 55° |
| 2026-05-04 13:23 | 38.72128 | 41.61346 | 11042 ft | 317 kts | 57° |
| 2026-05-04 13:24 | 38.73182 | 41.63744 | 10885 ft | 302 kts | 70° |
| 2026-05-04 13:24 | 38.73829 | 41.66225 | 10756 ft | 286 kts | 82° |
| 2026-05-04 13:24 | 38.74093 | 41.68686 | 10634 ft | 272 kts | 93° |
| 2026-05-04 13:25 | 38.73691 | 41.73230 | 10369 ft | 245 kts | 110° |
| 2026-05-04 13:25 | 38.73300 | 41.75338 | 10117 ft | 242 kts | 109° |
| 2026-05-04 13:25 | 38.72913 | 41.77432 | 9827 ft | 241 kts | 110° |
| 2026-05-04 13:25 | 38.72528 | 41.79512 | 9507 ft | 239 kts | 110° |
| 2026-05-04 13:26 | 38.72145 | 41.81579 | 9174 ft | 238 kts | 109° |
| 2026-05-04 13:26 | 38.71763 | 41.83638 | 8835 ft | 238 kts | 109° |
| 2026-05-04 13:26 | 38.71381 | 41.85692 | 8564 ft | 236 kts | 109° |
| 2026-05-04 13:26 | 38.71000 | 41.87731 | 8307 ft | 235 kts | 109° |
| 2026-05-04 13:27 | 38.70620 | 41.89765 | 8085 ft | 234 kts | 109° |
| 2026-05-04 13:27 | 38.70241 | 41.91791 | 8007 ft | 233 kts | 109° |
| 2026-05-04 13:27 | 38.69811 | 41.93793 | 8016 ft | 230 kts | 121° |
| 2026-05-04 13:27 | 38.68793 | 41.95242 | 8015 ft | 216 kts | 156° |
| 2026-05-04 13:28 | 38.67408 | 41.95682 | 8029 ft | 199 kts | 185° |
| 2026-05-04 13:28 | 38.66122 | 41.95166 | 8027 ft | 195 kts | 212° |
| 2026-05-04 13:28 | 38.65218 | 41.93876 | 8023 ft | 199 kts | 241° |
| 2026-05-04 13:28 | 38.64957 | 41.92137 | 8018 ft | 209 kts | 270° |
| 2026-05-04 13:29 | 38.65414 | 41.90331 | 8026 ft | 218 kts | 289° |
| 2026-05-04 13:29 | 38.66062 | 41.88578 | 8019 ft | 219 kts | 290° |
| 2026-05-04 13:29 | 38.66737 | 41.86831 | 7834 ft | 218 kts | 291° |
| 2026-05-04 13:29 | 38.67403 | 41.85132 | 7554 ft | 209 kts | 291° |
| 2026-05-04 13:30 | 38.68041 | 41.83493 | 7233 ft | 202 kts | 291° |
| 2026-05-04 13:30 | 38.68642 | 41.81954 | 6968 ft | 184 kts | 290° |
| 2026-05-04 13:30 | 38.69186 | 41.80553 | 6698 ft | 169 kts | 290° |
| 2026-05-04 13:30 | 38.69691 | 41.79254 | 6452 ft | 159 kts | 291° |
| 2026-05-04 13:31 | 38.70176 | 41.78001 | 6201 ft | 156 kts | 291° |
| 2026-05-04 13:31 | 38.70656 | 41.76763 | 5940 ft | 155 kts | 292° |
| 2026-05-04 13:31 | 38.71131 | 41.75535 | 5667 ft | 153 kts | 293° |
| 2026-05-04 13:31 | 38.71609 | 41.74303 | 5409 ft | 155 kts | 294° |
| 2026-05-04 13:32 | 38.72089 | 41.73065 | 5181 ft | 155 kts | 295° |
| 2026-05-04 13:32 | 38.72572 | 41.71835 | 4950 ft | 154 kts | 294° |
| 2026-05-04 13:32 | 38.73044 | 41.70614 | 4735 ft | 153 kts | 292° |
| 2026-05-04 13:32 | 38.73513 | 41.69403 | 4502 ft | 151 kts | 292° |
| 2026-05-04 13:33 | 38.73982 | 41.68198 | 4259 ft | 151 kts | 291° |
| 2026-05-04 13:33 | 38.74429 | 41.67021 | 4159 ft | 134 kts | 295° |
| 2026-05-04 13:33 | 38.74763 | 41.66159 | 4165 ft | 85 kts | 297° |
| 2026-05-04 13:33 | 38.74995 | 41.65562 | 4166 ft | 70 kts | 297° |
| 2026-05-04 13:34 | 38.75196 | 41.65040 | 4167 ft | 62 kts | 296° |
| 2026-05-04 13:34 | 38.75335 | 41.64683 | 4163 ft | 36 kts | 296° |
| 2026-05-04 13:34 | 38.75430 | 41.64435 | 4163 ft | 20 kts | 296° |
| 2026-05-04 13:34 | 38.75491 | 41.64373 | 4163 ft | 8 kts | 14° |
| 2026-05-04 13:35 | 38.75535 | 41.64405 | 4164 ft | 8 kts | 27° |
| 2026-05-04 13:35 | 38.75660 | 41.64485 | 4164 ft | 12 kts | 26° |
| 2026-05-04 13:35 | 38.75735 | 41.64533 | 4166 ft | 9 kts | 26° |
| 2026-05-04 13:36 | 38.75755 | 41.64546 | 4167 ft | 3 kts | 26° |
| 2026-05-04 13:36 | 38.75775 | 41.64558 | 4167 ft | 4 kts | 26° |
| 2026-05-04 13:36 | 38.75797 | 41.64572 | 4167 ft | 4 kts | 26° |
| 2026-05-04 13:36 | 38.75822 | 41.64588 | 4167 ft | 4 kts | 26° |
| 2026-05-04 13:37 | 38.75852 | 41.64607 | 4167 ft | 5 kts | 26° |
| 2026-05-04 13:37 | 38.75883 | 41.64620 | 4168 ft | 3 kts | 9° |
| 2026-05-04 13:37 | 38.75894 | 41.64621 | 4169 ft | 2 kts | 2° |
| 2026-05-04 13:37 | 38.75902 | 41.64622 | 4170 ft | 1 kts | 2° |
| 2026-05-04 13:38 | 38.75933 | 41.64631 | 4171 ft | 5 kts | 24° |
| 2026-05-04 13:38 | 38.75958 | 41.64648 | 4170 ft | 2 kts | 26° |
| 2026-05-04 13:38 | 38.75962 | 41.64651 | 4169 ft | 0 kts | 26° |